DucheSS Of Scandinavia — OUZI2 — position and weather

sailwx.info

Track history (hours):
 
Tides and Currents Weather Stations Pressure Air Temp Water Temp Dewpoint Dewpoint Depression Visibility Wind Speed Wind Dir Waves Ship Positions

DucheSS Of Scandinavia

Operator: DFDS A/S

Last reported at 2017-Mar-27 06:34 UTC. Time now 2017-Mar-27 06:45 UTC.
Position N 59°07' E 010°14'.

Length 134 m; draft 5.4 m.

Type: Passenger vessel. MMSI: 219002929.

Date/timePositionNaut miles runAvg speedWind from/ knotsBaromVisibWave heightAir tempDewpointWater temp
2017-Mar-27 06:34N 59°07' E 010°14'1 1.1
2017-Mar-27 05:34N 59°06' E 010°14'0 0.1
2017-Mar-27 04:33N 59°06' E 010°14'0 0.0
2017-Mar-27 03:31N 59°06' E 010°14'0 0.0
2017-Mar-27 02:32N 59°06' E 010°14'0 0.0
2017-Mar-27 01:32N 59°06' E 010°14'0 0.0
2017-Mar-27 00:33N 59°06' E 010°14'0 0.0
2017-Mar-26 23:31N 59°06' E 010°14'0 0.0
2017-Mar-26 22:32N 59°06' E 010°14'0 0.0
2017-Mar-26 21:32N 59°06' E 010°14'0 0.0
2017-Mar-26 20:33N 59°06' E 010°14'0 0.0
2017-Mar-26 19:33N 59°06' E 010°14'1 0.9
2017-Mar-26 18:34N 59°05' E 010°14'1413.7
2017-Mar-26 17:34N 59°01' E 010°40'1515.4
2017-Mar-26 16:34N 58°56' E 011°08'1 1.2
2017-Mar-26 15:34N 58°56' E 011°06'1414.5
2017-Mar-26 14:33N 59°01' E 010°39'1413.8
2017-Mar-26 13:34N 59°06' E 010°14'2 1.8
2017-Mar-26 12:33N 59°08' E 010°14'10 9.7
2017-Mar-26 11:34N 59°01' E 010°27'1514.9
2017-Mar-26 10:34N 59°00' E 010°56'8 8.5
2017-Mar-26 09:34N 58°56' E 011°10'4 4.2
2017-Mar-26 08:34N 58°58' E 011°03'1616.0
2017-Mar-26 07:34N 59°01' E 010°32'1211.7
2017-Mar-26 06:33N 59°07' E 010°14'1 1.3
2017-Mar-26 05:33N 59°06' E 010°14'0 0.1
2017-Mar-26 04:30N 59°06' E 010°14'0 0.0
2017-Mar-26 03:31N 59°06' E 010°14'0 0.0
2017-Mar-26 02:31N 59°06' E 010°14'0 0.0
2017-Mar-26 01:32N 59°06' E 010°14'0 0.0
2017-Mar-26 00:33N 59°06' E 010°14'0 0.0
2017-Mar-25 23:33N 59°06' E 010°14'0 0.0
2017-Mar-25 22:31N 59°06' E 010°14'0 0.0
2017-Mar-25 21:33N 59°06' E 010°14'0 0.0
2017-Mar-25 20:33N 59°06' E 010°14'1 0.8
2017-Mar-25 19:33N 59°05' E 010°14'1413.7
2017-Mar-25 18:33N 59°01' E 010°40'1515.1
2017-Mar-25 17:33N 58°56' E 011°07'0 0.4
2017-Mar-25 16:34N 58°56' E 011°06'1515.3
2017-Mar-25 15:33N 59°01' E 010°38'1313.3
2017-Mar-25 14:34N 59°06' E 010°14'2 1.7
2017-Mar-25 13:34N 59°08' E 010°14'9 9.5
2017-Mar-25 12:34N 59°01' E 010°27'1515.1
2017-Mar-25 11:34N 59°00' E 010°56'9 8.5
2017-Mar-25 10:34N 58°56' E 011°10'4 3.9
2017-Mar-25 09:33N 58°57' E 011°03'1515.2
2017-Mar-25 08:33N 59°01' E 010°34'1212.4
2017-Mar-25 07:33N 59°07' E 010°14'0 0.4
2017-Mar-25 06:33N 59°07' E 010°14'1 1.3
2017-Mar-25 05:32N 59°06' E 010°14'0 0.0
2017-Mar-25 04:33N 59°06' E 010°14'0 0.0
2017-Mar-25 03:33N 59°06' E 010°14'0 0.0
2017-Mar-25 02:31N 59°06' E 010°14'0 0.0
2017-Mar-25 01:32N 59°06' E 010°14'0 0.0
2017-Mar-25 00:32N 59°06' E 010°14'0 0.0
2017-Mar-24 23:33N 59°06' E 010°14'0 0.0
2017-Mar-24 22:31N 59°06' E 010°14'0 0.0
2017-Mar-24 21:31N 59°06' E 010°14'0 0.2
2017-Mar-24 20:34N 59°06' E 010°14'1 1.0
2017-Mar-24 19:33N 59°05' E 010°14'1413.7
2017-Mar-24 18:34N 59°01' E 010°40'1515.1
2017-Mar-24 17:34N 58°56' E 011°07'0 0.3
2017-Mar-24 16:34N 58°56' E 011°07'1515.1
2017-Mar-24 15:34N 59°01' E 010°39'1413.6
2017-Mar-24 14:34N 59°06' E 010°14'2 2.0
2017-Mar-24 13:33N 59°08' E 010°14'9 9.4
2017-Mar-24 12:33N 59°01' E 010°26'1515.0
2017-Mar-24 11:33N 59°00' E 010°55'9 8.8
2017-Mar-24 10:33N 58°56' E 011°10'4 4.0
2017-Mar-24 09:34N 58°57' E 011°03'1515.3
2017-Mar-24 08:34N 59°01' E 010°34'1212.3
2017-Mar-24 07:33N 59°07' E 010°14'1 1.0
2017-Mar-24 06:33N 59°06' E 010°14'0 0.1
2017-Mar-24 05:33N 59°06' E 010°14'0 0.0
2017-Mar-24 04:33N 59°06' E 010°14'0 0.0
2017-Mar-24 03:31N 59°06' E 010°14'0 0.0
2017-Mar-24 02:32N 59°06' E 010°14'0 0.0
2017-Mar-24 01:32N 59°06' E 010°14'0 0.0
2017-Mar-24 00:33N 59°06' E 010°14'0 0.0
2017-Mar-23 23:31N 59°06' E 010°14'0 0.0
2017-Mar-23 22:31N 59°06' E 010°14'0 0.0
2017-Mar-23 21:33N 59°06' E 010°14'0 0.0
2017-Mar-23 20:34N 59°06' E 010°14'1 1.2
2017-Mar-23 19:33N 59°05' E 010°15'1413.8
2017-Mar-23 18:33N 59°01' E 010°40'1515.1
2017-Mar-23 17:34N 58°56' E 011°08'1 0.6
2017-Mar-23 16:33N 58°56' E 011°07'1514.7
2017-Mar-23 15:34N 59°01' E 010°40'1413.8
2017-Mar-23 14:34N 59°05' E 010°14'2 2.3
2017-Mar-23 13:34N 59°08' E 010°14'1010.4
2017-Mar-23 12:33N 59°01' E 010°29'1413.7
2017-Mar-23 11:33N 59°00' E 010°55'9 8.8
2017-Mar-23 10:34N 58°56' E 011°10'4 4.4
2017-Mar-23 09:34N 58°58' E 011°02'1515.3
2017-Mar-23 08:33N 59°00' E 010°33'1212.2
2017-Mar-23 07:33N 59°07' E 010°14'1 1.1
2017-Mar-23 06:34N 59°06' E 010°14'0 0.1
2017-Mar-23 05:33N 59°06' E 010°14'0 0.0
2017-Mar-23 04:33N 59°06' E 010°14'0 0.0
2017-Mar-23 03:31N 59°06' E 010°14'0 0.0
2017-Mar-23 02:32N 59°06' E 010°14'0 0.0
2017-Mar-23 01:29N 59°06' E 010°14'0 0.0
2017-Mar-23 00:33N 59°06' E 010°14'0 0.0
2017-Mar-22 23:31N 59°06' E 010°14'0 0.0
2017-Mar-22 22:31N 59°06' E 010°14'0 0.0
2017-Mar-22 21:34N 59°06' E 010°14'0 0.0
2017-Mar-22 20:33N 59°06' E 010°14'1 1.0
2017-Mar-22 19:33N 59°05' E 010°15'1414.0
2017-Mar-22 18:34N 59°02' E 010°41'1515.2
2017-Mar-22 17:34N 58°56' E 011°08'2 2.0
2017-Mar-22 16:33N 58°57' E 011°04'1514.8
2017-Mar-22 15:34N 59°00' E 010°37'1312.7
2017-Mar-22 14:34N 59°06' E 010°14'2 2.1
2017-Mar-22 13:34N 59°08' E 010°14'1010.4
2017-Mar-22 12:33N 58°59' E 010°26'1514.5
2017-Mar-22 11:34N 59°01' E 010°54'9 9.3
2017-Mar-22 10:34N 58°56' E 011°10'7 7.1
2017-Mar-22 09:34N 58°60' E 010°58'1414.1
2017-Mar-22 08:33N 58°58' E 010°31'1312.7
2017-Mar-22 07:33N 59°07' E 010°14'1 0.8
2017-Mar-22 06:34N 59°06' E 010°14'0 0.1
2017-Mar-22 05:33N 59°06' E 010°14'0 0.0
2017-Mar-22 04:33N 59°06' E 010°14'0 0.0
2017-Mar-22 03:31N 59°06' E 010°14'0 0.0
2017-Mar-22 02:32N 59°06' E 010°14'0 0.0
2017-Mar-22 01:32N 59°06' E 010°14'0 0.0
2017-Mar-22 00:33N 59°06' E 010°14'0 0.0
2017-Mar-21 23:31N 59°06' E 010°14'0 0.0
2017-Mar-21 22:31N 59°06' E 010°14'0 0.0
2017-Mar-21 21:32N 59°06' E 010°14'0 0.4
2017-Mar-21 20:33N 59°07' E 010°14'3 3.0
2017-Mar-21 19:34N 59°04' E 010°15'1413.8
2017-Mar-21 18:34N 59°01' E 010°41'1414.3
2017-Mar-21 17:33N 58°56' E 011°07'3 3.3
2017-Mar-21 16:34N 58°58' E 011°02'1514.8
2017-Mar-21 15:34N 59°01' E 010°34'1212.1
2017-Mar-21 14:33N 59°07' E 010°14'1 0.8
2017-Mar-21 13:33N 59°08' E 010°14'1110.8
2017-Mar-21 12:34N 58°60' E 010°28'1414.2
2017-Mar-21 11:34N 59°00' E 010°55'9 8.8
2017-Mar-21 10:34N 58°56' E 011°10'5 5.0
2017-Mar-21 09:34N 58°58' E 011°02'1515.0
2017-Mar-21 08:34N 59°00' E 010°33'1212.1
2017-Mar-21 07:33N 59°07' E 010°14'1 1.1
2017-Mar-21 06:34N 59°06' E 010°14'0 0.0
2017-Mar-21 05:31N 59°06' E 010°14'0 0.0
2017-Mar-21 04:29N 59°06' E 010°14'0 0.0
2017-Mar-21 03:33N 59°06' E 010°14'0 0.0
2017-Mar-21 02:33N 59°06' E 010°14'0 0.0
2017-Mar-21 01:28N 59°06' E 010°14'0 0.0
2017-Mar-21 00:32N 59°06' E 010°14'0 0.0
2017-Mar-20 23:32N 59°06' E 010°14'0 0.0
2017-Mar-20 22:33N 59°06' E 010°14'0 0.0
2017-Mar-20 21:34N 59°06' E 010°14'0 0.0
2017-Mar-20 20:34N 59°06' E 010°14'1 1.4
2017-Mar-20 19:34N 59°05' E 010°15'1413.8
2017-Mar-20 18:34N 59°01' E 010°41'1615.5
2017-Mar-20 17:33N 58°56' E 011°09'4 3.8
2017-Mar-20 16:34N 58°58' E 011°03'1414.0
2017-Mar-20 15:34N 59°01' E 010°36'1212.2
2017-Mar-20 14:34N 59°06' E 010°14'2 2.1
2017-Mar-20 13:34N 59°08' E 010°14'1010.4
2017-Mar-20 12:34N 59°01' E 010°29'1515.3
2017-Mar-20 11:34N 58°60' E 010°58'7 7.2
2017-Mar-20 10:34N 58°56' E 011°10'5 5.1
2017-Mar-20 09:33N 58°58' E 011°01'1514.8
2017-Mar-20 08:34N 59°01' E 010°33'1211.9
2017-Mar-20 07:34N 59°07' E 010°14'1 0.8
2017-Mar-20 06:34N 59°06' E 010°14'0 0.1
2017-Mar-20 05:33N 59°06' E 010°14'0 0.0
2017-Mar-20 04:31N 59°06' E 010°14'0 0.0
2017-Mar-20 03:32N 59°06' E 010°14'0 0.0
2017-Mar-20 02:32N 59°06' E 010°14'0 0.0
2017-Mar-20 01:33N 59°06' E 010°14'0 0.0
2017-Mar-20 00:31N 59°06' E 010°14'0 0.0
2017-Mar-19 23:31N 59°06' E 010°14'0 0.0
2017-Mar-19 22:32N 59°06' E 010°14'0 0.0
2017-Mar-19 21:34N 59°06' E 010°14'0 0.0
2017-Mar-19 20:33N 59°06' E 010°14'1 0.6
2017-Mar-19 19:34N 59°06' E 010°14'1313.2
2017-Mar-19 18:34N 59°01' E 010°38'1515.4
2017-Mar-19 17:33N 58°56' E 011°07'1 1.0
2017-Mar-19 16:34N 58°56' E 011°05'1514.6
2017-Mar-19 15:34N 59°01' E 010°38'1312.9
2017-Mar-19 14:33N 59°06' E 010°14'2 2.1
2017-Mar-19 13:34N 59°08' E 010°14'1010.4
2017-Mar-19 12:33N 59°01' E 010°29'1514.7
2017-Mar-19 11:34N 59°00' E 010°57'8 7.8
2017-Mar-19 10:33N 58°56' E 011°10'5 5.4
2017-Mar-19 09:34N 58°59' E 011°01'1514.9
2017-Mar-19 08:34N 59°01' E 010°32'1211.6
2017-Mar-19 07:33N 59°07' E 010°14'1 1.1
2017-Mar-19 06:34N 59°06' E 010°14'0 0.1
2017-Mar-19 05:28N 59°06' E 010°14'0 0.0
2017-Mar-19 04:28N 59°06' E 010°14'0 0.0
2017-Mar-19 03:32N 59°06' E 010°14'0 0.0
2017-Mar-19 02:33N 59°06' E 010°14'0 0.0
2017-Mar-19 01:33N 59°06' E 010°14'0 0.0
2017-Mar-19 00:31N 59°06' E 010°14'0 0.0
2017-Mar-18 23:32N 59°06' E 010°14'0 0.0
2017-Mar-18 22:32N 59°06' E 010°14'0 0.0
2017-Mar-18 21:33N 59°06' E 010°14'1 0.6
2017-Mar-18 20:34N 59°07' E 010°14'2 2.0
2017-Mar-18 19:34N 59°05' E 010°15'1413.8
2017-Mar-18 18:34N 59°01' E 010°41'1515.0
2017-Mar-18 17:34N 58°56' E 011°08'2 1.7
2017-Mar-18 16:34N 58°56' E 011°05'1515.0
2017-Mar-18 15:34N 59°01' E 010°37'1312.8
2017-Mar-18 14:34N 59°06' E 010°14'2 1.6
2017-Mar-18 13:33N 59°08' E 010°14'1010.4
2017-Mar-18 12:33N 59°01' E 010°29'1515.3
2017-Mar-18 11:34N 58°60' E 010°58'7 7.3
2017-Mar-18 10:34N 58°56' E 011°10'7 6.7
2017-Mar-18 09:33N 58°59' E 010°59'1616.2
2017-Mar-18 08:34N 59°01' E 010°28'1010.0
2017-Mar-18 07:33N 59°08' E 010°14'0 0.3
2017-Mar-18 06:33N 59°07' E 010°14'1 1.1
2017-Mar-18 05:32N 59°06' E 010°14'0 0.0
2017-Mar-18 04:32N 59°06' E 010°14'0 0.0
2017-Mar-18 03:33N 59°06' E 010°14'0 0.0
2017-Mar-18 02:31N 59°06' E 010°14'0 0.0
2017-Mar-18 01:31N 59°06' E 010°14'0 0.0
2017-Mar-18 00:32N 59°06' E 010°14'0 0.0
2017-Mar-17 23:33N 59°06' E 010°14'0 0.0
2017-Mar-17 22:30N 59°06' E 010°14'0 0.0
2017-Mar-17 21:34N 59°06' E 010°14'0 0.0
2017-Mar-17 20:34N 59°06' E 010°14'2 2.3
2017-Mar-17 19:34N 59°04' E 010°15'1414.1
2017-Mar-17 18:34N 59°01' E 010°42'1514.5
2017-Mar-17 17:34N 58°56' E 011°08'1 1.4
2017-Mar-17 16:34N 58°56' E 011°05'1515.2
2017-Mar-17 15:33N 59°01' E 010°37'1313.1
2017-Mar-17 14:34N 59°06' E 010°14'1 1.3
2017-Mar-17 13:33N 59°08' E 010°14'1010.4
2017-Mar-17 12:33N 59°00' E 010°28'1414.0
2017-Mar-17 11:34N 59°00' E 010°55'9 8.7
2017-Mar-17 10:33N 58°56' E 011°10'5 5.2
2017-Mar-17 09:34N 58°59' E 011°01'1616.1
2017-Mar-17 08:33N 59°00' E 010°30'1111.3
2017-Mar-17 07:33N 59°07' E 010°14'1 1.3
2017-Mar-17 06:34N 59°06' E 010°14'  
Track history (hours):
 
Tides and Currents Weather Stations Pressure Air Temp Water Temp Dewpoint Dewpoint Depression Visibility Wind Speed Wind Dir Waves Ship Positions

DucheSS Of Scandinavia

Operator: DFDS A/S

Last reported at 2017-Mar-27 06:34 UTC. Time now 2017-Mar-27 06:45 UTC.
Position N 59°07' E 010°14'.

Length 134 m; draft 5.4 m.

Type: Passenger vessel. MMSI: 219002929.

Date/timePositionNaut miles runAvg speedWind from/ knotsBaromVisibWave heightAir tempDewpointWater temp
2017-Mar-27 06:34N 59°07' E 010°14'1 1.1
2017-Mar-27 05:34N 59°06' E 010°14'0 0.1
2017-Mar-27 04:33N 59°06' E 010°14'0 0.0
2017-Mar-27 03:31N 59°06' E 010°14'0 0.0
2017-Mar-27 02:32N 59°06' E 010°14'0 0.0
2017-Mar-27 01:32N 59°06' E 010°14'0 0.0
2017-Mar-27 00:33N 59°06' E 010°14'0 0.0
2017-Mar-26 23:31N 59°06' E 010°14'0 0.0
2017-Mar-26 22:32N 59°06' E 010°14'0 0.0
2017-Mar-26 21:32N 59°06' E 010°14'0 0.0
2017-Mar-26 20:33N 59°06' E 010°14'0 0.0
2017-Mar-26 19:33N 59°06' E 010°14'1 0.9
2017-Mar-26 18:34N 59°05' E 010°14'1413.7
2017-Mar-26 17:34N 59°01' E 010°40'1515.4
2017-Mar-26 16:34N 58°56' E 011°08'1 1.2
2017-Mar-26 15:34N 58°56' E 011°06'1414.5
2017-Mar-26 14:33N 59°01' E 010°39'1413.8
2017-Mar-26 13:34N 59°06' E 010°14'2 1.8
2017-Mar-26 12:33N 59°08' E 010°14'10 9.7
2017-Mar-26 11:34N 59°01' E 010°27'1514.9
2017-Mar-26 10:34N 59°00' E 010°56'8 8.5
2017-Mar-26 09:34N 58°56' E 011°10'4 4.2
2017-Mar-26 08:34N 58°58' E 011°03'1616.0
2017-Mar-26 07:34N 59°01' E 010°32'1211.7
2017-Mar-26 06:33N 59°07' E 010°14'1 1.3
2017-Mar-26 05:33N 59°06' E 010°14'0 0.1
2017-Mar-26 04:30N 59°06' E 010°14'0 0.0
2017-Mar-26 03:31N 59°06' E 010°14'0 0.0
2017-Mar-26 02:31N 59°06' E 010°14'0 0.0
2017-Mar-26 01:32N 59°06' E 010°14'0 0.0
2017-Mar-26 00:33N 59°06' E 010°14'0 0.0
2017-Mar-25 23:33N 59°06' E 010°14'0 0.0
2017-Mar-25 22:31N 59°06' E 010°14'0 0.0
2017-Mar-25 21:33N 59°06' E 010°14'0 0.0
2017-Mar-25 20:33N 59°06' E 010°14'1 0.8
2017-Mar-25 19:33N 59°05' E 010°14'1413.7
2017-Mar-25 18:33N 59°01' E 010°40'1515.1
2017-Mar-25 17:33N 58°56' E 011°07'0 0.4
2017-Mar-25 16:34N 58°56' E 011°06'1515.3
2017-Mar-25 15:33N 59°01' E 010°38'1313.3
2017-Mar-25 14:34N 59°06' E 010°14'2 1.7
2017-Mar-25 13:34N 59°08' E 010°14'9 9.5
2017-Mar-25 12:34N 59°01' E 010°27'1515.1
2017-Mar-25 11:34N 59°00' E 010°56'9 8.5
2017-Mar-25 10:34N 58°56' E 011°10'4 3.9
2017-Mar-25 09:33N 58°57' E 011°03'1515.2
2017-Mar-25 08:33N 59°01' E 010°34'1212.4
2017-Mar-25 07:33N 59°07' E 010°14'0 0.4
2017-Mar-25 06:33N 59°07' E 010°14'1 1.3
2017-Mar-25 05:32N 59°06' E 010°14'0 0.0
2017-Mar-25 04:33N 59°06' E 010°14'0 0.0
2017-Mar-25 03:33N 59°06' E 010°14'0 0.0
2017-Mar-25 02:31N 59°06' E 010°14'0 0.0
2017-Mar-25 01:32N 59°06' E 010°14'0 0.0
2017-Mar-25 00:32N 59°06' E 010°14'0 0.0
2017-Mar-24 23:33N 59°06' E 010°14'0 0.0
2017-Mar-24 22:31N 59°06' E 010°14'0 0.0
2017-Mar-24 21:31N 59°06' E 010°14'0 0.2
2017-Mar-24 20:34N 59°06' E 010°14'1 1.0
2017-Mar-24 19:33N 59°05' E 010°14'1413.7
2017-Mar-24 18:34N 59°01' E 010°40'1515.1
2017-Mar-24 17:34N 58°56' E 011°07'0 0.3
2017-Mar-24 16:34N 58°56' E 011°07'1515.1
2017-Mar-24 15:34N 59°01' E 010°39'1413.6
2017-Mar-24 14:34N 59°06' E 010°14'2 2.0
2017-Mar-24 13:33N 59°08' E 010°14'9 9.4
2017-Mar-24 12:33N 59°01' E 010°26'1515.0
2017-Mar-24 11:33N 59°00' E 010°55'9 8.8
2017-Mar-24 10:33N 58°56' E 011°10'4 4.0
2017-Mar-24 09:34N 58°57' E 011°03'1515.3
2017-Mar-24 08:34N 59°01' E 010°34'1212.3
2017-Mar-24 07:33N 59°07' E 010°14'1 1.0
2017-Mar-24 06:33N 59°06' E 010°14'0 0.1
2017-Mar-24 05:33N 59°06' E 010°14'0 0.0
2017-Mar-24 04:33N 59°06' E 010°14'0 0.0
2017-Mar-24 03:31N 59°06' E 010°14'0 0.0
2017-Mar-24 02:32N 59°06' E 010°14'0 0.0
2017-Mar-24 01:32N 59°06' E 010°14'0 0.0
2017-Mar-24 00:33N 59°06' E 010°14'0 0.0
2017-Mar-23 23:31N 59°06' E 010°14'0 0.0
2017-Mar-23 22:31N 59°06' E 010°14'0 0.0
2017-Mar-23 21:33N 59°06' E 010°14'0 0.0
2017-Mar-23 20:34N 59°06' E 010°14'1 1.2
2017-Mar-23 19:33N 59°05' E 010°15'1413.8
2017-Mar-23 18:33N 59°01' E 010°40'1515.1
2017-Mar-23 17:34N 58°56' E 011°08'1 0.6
2017-Mar-23 16:33N 58°56' E 011°07'1514.7
2017-Mar-23 15:34N 59°01' E 010°40'1413.8
2017-Mar-23 14:34N 59°05' E 010°14'2 2.3
2017-Mar-23 13:34N 59°08' E 010°14'1010.4
2017-Mar-23 12:33N 59°01' E 010°29'1413.7
2017-Mar-23 11:33N 59°00' E 010°55'9 8.8
2017-Mar-23 10:34N 58°56' E 011°10'4 4.4
2017-Mar-23 09:34N 58°58' E 011°02'1515.3
2017-Mar-23 08:33N 59°00' E 010°33'1212.2
2017-Mar-23 07:33N 59°07' E 010°14'1 1.1
2017-Mar-23 06:34N 59°06' E 010°14'0 0.1
2017-Mar-23 05:33N 59°06' E 010°14'0 0.0
2017-Mar-23 04:33N 59°06' E 010°14'0 0.0
2017-Mar-23 03:31N 59°06' E 010°14'0 0.0
2017-Mar-23 02:32N 59°06' E 010°14'0 0.0
2017-Mar-23 01:29N 59°06' E 010°14'0 0.0
2017-Mar-23 00:33N 59°06' E 010°14'0 0.0
2017-Mar-22 23:31N 59°06' E 010°14'0 0.0
2017-Mar-22 22:31N 59°06' E 010°14'0 0.0
2017-Mar-22 21:34N 59°06' E 010°14'0 0.0
2017-Mar-22 20:33N 59°06' E 010°14'1 1.0
2017-Mar-22 19:33N 59°05' E 010°15'1414.0
2017-Mar-22 18:34N 59°02' E 010°41'1515.2
2017-Mar-22 17:34N 58°56' E 011°08'2 2.0
2017-Mar-22 16:33N 58°57' E 011°04'1514.8
2017-Mar-22 15:34N 59°00' E 010°37'1312.7
2017-Mar-22 14:34N 59°06' E 010°14'2 2.1
2017-Mar-22 13:34N 59°08' E 010°14'1010.4
2017-Mar-22 12:33N 58°59' E 010°26'1514.5
2017-Mar-22 11:34N 59°01' E 010°54'9 9.3
2017-Mar-22 10:34N 58°56' E 011°10'7 7.1
2017-Mar-22 09:34N 58°60' E 010°58'1414.1
2017-Mar-22 08:33N 58°58' E 010°31'1312.7
2017-Mar-22 07:33N 59°07' E 010°14'1 0.8
2017-Mar-22 06:34N 59°06' E 010°14'0 0.1
2017-Mar-22 05:33N 59°06' E 010°14'0 0.0
2017-Mar-22 04:33N 59°06' E 010°14'0 0.0
2017-Mar-22 03:31N 59°06' E 010°14'0 0.0
2017-Mar-22 02:32N 59°06' E 010°14'0 0.0
2017-Mar-22 01:32N 59°06' E 010°14'0 0.0
2017-Mar-22 00:33N 59°06' E 010°14'0 0.0
2017-Mar-21 23:31N 59°06' E 010°14'0 0.0
2017-Mar-21 22:31N 59°06' E 010°14'0 0.0
2017-Mar-21 21:32N 59°06' E 010°14'0 0.4
2017-Mar-21 20:33N 59°07' E 010°14'3 3.0
2017-Mar-21 19:34N 59°04' E 010°15'1413.8
2017-Mar-21 18:34N 59°01' E 010°41'1414.3
2017-Mar-21 17:33N 58°56' E 011°07'3 3.3
2017-Mar-21 16:34N 58°58' E 011°02'1514.8
2017-Mar-21 15:34N 59°01' E 010°34'1212.1
2017-Mar-21 14:33N 59°07' E 010°14'1 0.8
2017-Mar-21 13:33N 59°08' E 010°14'1110.8
2017-Mar-21 12:34N 58°60' E 010°28'1414.2
2017-Mar-21 11:34N 59°00' E 010°55'9 8.8
2017-Mar-21 10:34N 58°56' E 011°10'5 5.0
2017-Mar-21 09:34N 58°58' E 011°02'1515.0
2017-Mar-21 08:34N 59°00' E 010°33'1212.1
2017-Mar-21 07:33N 59°07' E 010°14'1 1.1
2017-Mar-21 06:34N 59°06' E 010°14'0 0.0
2017-Mar-21 05:31N 59°06' E 010°14'0 0.0
2017-Mar-21 04:29N 59°06' E 010°14'0 0.0
2017-Mar-21 03:33N 59°06' E 010°14'0 0.0
2017-Mar-21 02:33N 59°06' E 010°14'0 0.0
2017-Mar-21 01:28N 59°06' E 010°14'0 0.0
2017-Mar-21 00:32N 59°06' E 010°14'0 0.0
2017-Mar-20 23:32N 59°06' E 010°14'0 0.0
2017-Mar-20 22:33N 59°06' E 010°14'0 0.0
2017-Mar-20 21:34N 59°06' E 010°14'0 0.0
2017-Mar-20 20:34N 59°06' E 010°14'1 1.4
2017-Mar-20 19:34N 59°05' E 010°15'1413.8
2017-Mar-20 18:34N 59°01' E 010°41'1615.5
2017-Mar-20 17:33N 58°56' E 011°09'4 3.8
2017-Mar-20 16:34N 58°58' E 011°03'1414.0
2017-Mar-20 15:34N 59°01' E 010°36'1212.2
2017-Mar-20 14:34N 59°06' E 010°14'2 2.1
2017-Mar-20 13:34N 59°08' E 010°14'1010.4
2017-Mar-20 12:34N 59°01' E 010°29'1515.3
2017-Mar-20 11:34N 58°60' E 010°58'7 7.2
2017-Mar-20 10:34N 58°56' E 011°10'5 5.1
2017-Mar-20 09:33N 58°58' E 011°01'1514.8
2017-Mar-20 08:34N 59°01' E 010°33'1211.9
2017-Mar-20 07:34N 59°07' E 010°14'1 0.8
2017-Mar-20 06:34N 59°06' E 010°14'0 0.1
2017-Mar-20 05:33N 59°06' E 010°14'0 0.0
2017-Mar-20 04:31N 59°06' E 010°14'0 0.0
2017-Mar-20 03:32N 59°06' E 010°14'0 0.0
2017-Mar-20 02:32N 59°06' E 010°14'0 0.0
2017-Mar-20 01:33N 59°06' E 010°14'0 0.0
2017-Mar-20 00:31N 59°06' E 010°14'0 0.0
2017-Mar-19 23:31N 59°06' E 010°14'0 0.0
2017-Mar-19 22:32N 59°06' E 010°14'0 0.0
2017-Mar-19 21:34N 59°06' E 010°14'0 0.0
2017-Mar-19 20:33N 59°06' E 010°14'1 0.6
2017-Mar-19 19:34N 59°06' E 010°14'1313.2
2017-Mar-19 18:34N 59°01' E 010°38'1515.4
2017-Mar-19 17:33N 58°56' E 011°07'1 1.0
2017-Mar-19 16:34N 58°56' E 011°05'1514.6
2017-Mar-19 15:34N 59°01' E 010°38'1312.9
2017-Mar-19 14:33N 59°06' E 010°14'2 2.1
2017-Mar-19 13:34N 59°08' E 010°14'1010.4
2017-Mar-19 12:33N 59°01' E 010°29'1514.7
2017-Mar-19 11:34N 59°00' E 010°57'8 7.8
2017-Mar-19 10:33N 58°56' E 011°10'5 5.4
2017-Mar-19 09:34N 58°59' E 011°01'1514.9
2017-Mar-19 08:34N 59°01' E 010°32'1211.6
2017-Mar-19 07:33N 59°07' E 010°14'1 1.1
2017-Mar-19 06:34N 59°06' E 010°14'0 0.1
2017-Mar-19 05:28N 59°06' E 010°14'0 0.0
2017-Mar-19 04:28N 59°06' E 010°14'0 0.0
2017-Mar-19 03:32N 59°06' E 010°14'0 0.0
2017-Mar-19 02:33N 59°06' E 010°14'0 0.0
2017-Mar-19 01:33N 59°06' E 010°14'0 0.0
2017-Mar-19 00:31N 59°06' E 010°14'0 0.0
2017-Mar-18 23:32N 59°06' E 010°14'0 0.0
2017-Mar-18 22:32N 59°06' E 010°14'0 0.0
2017-Mar-18 21:33N 59°06' E 010°14'1 0.6
2017-Mar-18 20:34N 59°07' E 010°14'2 2.0
2017-Mar-18 19:34N 59°05' E 010°15'1413.8
2017-Mar-18 18:34N 59°01' E 010°41'1515.0
2017-Mar-18 17:34N 58°56' E 011°08'2 1.7
2017-Mar-18 16:34N 58°56' E 011°05'1515.0
2017-Mar-18 15:34N 59°01' E 010°37'1312.8
2017-Mar-18 14:34N 59°06' E 010°14'2 1.6
2017-Mar-18 13:33N 59°08' E 010°14'1010.4
2017-Mar-18 12:33N 59°01' E 010°29'1515.3
2017-Mar-18 11:34N 58°60' E 010°58'7 7.3
2017-Mar-18 10:34N 58°56' E 011°10'7 6.7
2017-Mar-18 09:33N 58°59' E 010°59'1616.2
2017-Mar-18 08:34N 59°01' E 010°28'1010.0
2017-Mar-18 07:33N 59°08' E 010°14'0 0.3
2017-Mar-18 06:33N 59°07' E 010°14'1 1.1
2017-Mar-18 05:32N 59°06' E 010°14'0 0.0
2017-Mar-18 04:32N 59°06' E 010°14'0 0.0
2017-Mar-18 03:33N 59°06' E 010°14'0 0.0
2017-Mar-18 02:31N 59°06' E 010°14'0 0.0
2017-Mar-18 01:31N 59°06' E 010°14'0 0.0
2017-Mar-18 00:32N 59°06' E 010°14'0 0.0
2017-Mar-17 23:33N 59°06' E 010°14'0 0.0
2017-Mar-17 22:30N 59°06' E 010°14'0 0.0
2017-Mar-17 21:34N 59°06' E 010°14'0 0.0
2017-Mar-17 20:34N 59°06' E 010°14'2 2.3
2017-Mar-17 19:34N 59°04' E 010°15'1414.1
2017-Mar-17 18:34N 59°01' E 010°42'1514.5
2017-Mar-17 17:34N 58°56' E 011°08'1 1.4
2017-Mar-17 16:34N 58°56' E 011°05'1515.2
2017-Mar-17 15:33N 59°01' E 010°37'1313.1
2017-Mar-17 14:34N 59°06' E 010°14'1 1.3
2017-Mar-17 13:33N 59°08' E 010°14'1010.4
2017-Mar-17 12:33N 59°00' E 010°28'1414.0
2017-Mar-17 11:34N 59°00' E 010°55'9 8.7
2017-Mar-17 10:33N 58°56' E 011°10'5 5.2
2017-Mar-17 09:34N 58°59' E 011°01'1616.1
2017-Mar-17 08:33N 59°00' E 010°30'1111.3
2017-Mar-17 07:33N 59°07' E 010°14'1 1.3
2017-Mar-17 06:34N 59°06' E 010°14'  

Dump ship's entire track history